Terminal Aerodrome Forecast
Issued by NWS

Home | Current Version | Previous Version | Text Only | Print | Product List | Glossary On
Versions: 1 2 3 4 5 6 7 8 9 10 11 12 13 14 15 16 17 18 19
000
FTUS44 KLZK 171800 AAA
TAFBPK
TAF AMD
KBPK 171834Z 1719/1818 12003KT P6SM VCSH SCT060 OVC100
      TEMPO 1720/1724 -RAPL BKN060
     FM180000 12003KT P6SM -RA SCT050 BKN100
      TEMPO 1800/1804 -RAPL BKN050
     FM180400 12004KT P6SM -RA SCT020 OVC050
      TEMPO 1805/1809 5SM -RA BR OVC015
     FM180900 13004KT 5SM BR SCT005 OVC015
      TEMPO 1811/1815 3SM -DZ BR OVC005
     FM181500 13004KT 5SM BR OVC005=

USA.gov is the U.S. government's official web portal to all federal, state and local government web resources and services.